Time;durP1;ratioP1;P1;durP2;ratioP2;P2;SDS_P1;SDS_P2;PMS_P1;PMS_P2;Temp;Humidity;BMP_temperature;BMP_pressure;BME280_temperature;BME280_humidity;BME280_pressure;Samples;Min_cycle;Max_cycle;Signal;HPM_P1;HPM_P2
2021/07/08 10:11:30;;;;;;;7.25;2.72;;;23.20;93.80;;;;;;14746632;22;2225288;-60
2021/07/08 10:17:27;;;;;;;4.95;2.95;;;23.40;93.00;;;;;;15052532;22;20048;-58
2021/07/08 10:23:15;;;;;;;3.72;2.58;;;23.50;91.30;;;;;;15068884;22;20499;-58
2021/07/08 10:29:04;;;;;;;4.65;2.47;;;23.80;91.00;;;;;;15090000;22;20026;-59
2021/07/08 10:34:52;;;;;;;6.80;3.63;;;23.80;89.80;;;;;;15071616;22;20015;-60
2021/07/08 10:40:39;;;;;;;6.95;2.97;;;23.60;91.10;;;;;;15100571;22;20106;-66
2021/07/08 10:52:45;;;;;;;8.50;3.08;;;23.10;91.30;;;;;;15099954;22;20019;-60
2021/07/08 10:58:47;;;;;;;6.50;3.25;;;23.10;92.00;;;;;;15102401;22;20021;-60
2021/07/08 11:04:48;;;;;;;7.03;3.60;;;23.00;91.90;;;;;;15079277;22;20097;-58
2021/07/08 11:10:35;;;;;;;5.05;3.13;;;23.00;91.50;;;;;;15058809;22;20018;-59
2021/07/08 11:16:39;;;;;;;7.10;3.00;;;22.80;91.70;;;;;;15083057;22;20099;-62
2021/07/08 11:22:36;;;;;;;5.30;2.92;;;23.00;91.50;;;;;;15083029;22;20074;-62
2021/07/08 11:28:28;;;;;;;6.35;2.90;;;23.20;91.00;;;;;;15082450;22;20049;-61
2021/07/08 11:34:15;;;;;;;6.68;3.00;;;23.60;89.90;;;;;;15030650;22;20569;-61
2021/07/08 11:40:06;;;;;;;8.30;3.03;;;24.10;89.20;;;;;;15011472;22;20360;-62
2021/07/08 11:45:54;;;;;;;3.78;2.78;;;24.00;85.00;;;;;;15003601;22;20078;-59
2021/07/08 11:51:41;;;;;;;5.68;2.20;;;24.30;83.50;;;;;;15004073;22;20467;-60
2021/07/08 11:57:50;;;;;;;7.03;2.63;;;24.30;81.70;;;;;;15003955;22;20160;-60
2021/07/08 12:03:40;;;;;;;4.97;2.80;;;24.70;79.20;;;;;;14997571;22;20398;-61
2021/07/08 12:09:28;;;;;;;5.32;2.47;;;24.70;78.50;;;;;;15001668;22;20023;-60
2021/07/08 12:15:16;;;;;;;4.47;2.83;;;24.90;79.80;;;;;;15002395;22;20020;-60
2021/07/08 12:21:20;;;;;;;5.95;2.53;;;24.90;79.50;;;;;;15003823;22;20114;-60
2021/07/08 12:27:08;;;;;;;5.40;2.72;;;24.70;81.10;;;;;;15003828;22;20022;-60
2021/07/08 12:33:08;;;;;;;4.85;2.88;;;24.30;82.70;;;;;;15005569;22;20053;-60
2021/07/08 12:38:55;;;;;;;3.25;2.50;;;24.50;81.50;;;;;;15003489;22;20026;-60
2021/07/08 12:44:43;;;;;;;3.40;2.10;;;24.20;81.10;;;;;;15003069;22;20053;-60
2021/07/08 12:50:36;;;;;;;3.03;2.45;;;23.90;81.00;;;;;;15002328;22;20084;-60
2021/07/08 12:56:23;;;;;;;3.03;2.67;;;23.50;83.50;;;;;;15002523;22;20081;-60
2021/07/08 13:02:20;;;;;;;3.75;2.15;;;23.60;84.30;;;;;;15003571;22;20027;-60
2021/07/08 13:08:12;;;;;;;3.78;1.95;;;23.70;83.20;;;;;;14973580;22;20106;-59
2021/07/08 13:14:17;;;;;;;3.83;1.90;;;24.10;83.10;;;;;;14954358;22;20020;-60
2021/07/08 13:20:09;;;;;;;4.53;2.00;;;24.30;81.10;;;;;;15002821;22;20015;-60
2021/07/08 13:26:08;;;;;;;7.45;2.03;;;24.10;82.80;;;;;;15002916;22;20051;-60
2021/07/08 13:31:55;;;;;;;5.95;2.80;;;24.30;82.70;;;;;;15001867;22;20019;-60
2021/07/08 13:37:42;;;;;;;3.30;2.10;;;24.60;79.70;;;;;;15002521;22;20030;-60
2021/07/08 13:43:34;;;;;;;4.38;2.35;;;24.50;77.80;;;;;;15002022;22;20030;-60
2021/07/08 13:49:23;;;;;;;4.03;2.30;;;24.50;77.70;;;;;;14985703;22;20071;-61
2021/07/08 13:55:12;;;;;;;2.60;2.22;;;24.80;77.90;;;;;;15002154;22;20093;-61
2021/07/08 14:01:00;;;;;;;2.30;1.80;;;24.80;78.40;;;;;;15001967;22;20102;-61
2021/07/08 14:06:49;;;;;;;3.22;1.95;;;24.60;76.90;;;;;;14979298;22;20669;-61
2021/07/08 14:12:35;;;;;;;2.53;2.30;;;25.30;77.20;;;;;;14970422;22;20020;-61
2021/07/08 14:18:24;;;;;;;5.45;2.17;;;25.60;76.40;;;;;;14973337;22;20015;-61
2021/07/08 14:24:11;;;;;;;2.17;1.80;;;25.70;75.30;;;;;;14970839;22;20485;-61
2021/07/08 14:29:58;;;;;;;4.57;2.03;;;25.70;73.00;;;;;;14991822;22;20022;-61
2021/07/08 14:35:46;;;;;;;2.95;1.70;;;25.60;73.10;;;;;;15004233;22;20057;-60
2021/07/08 14:41:42;;;;;;;5.25;2.10;;;25.40;73.30;;;;;;15005899;22;20110;-60
2021/07/08 14:47:33;;;;;;;2.00;1.70;;;25.60;73.50;;;;;;15002430;22;20080;-59
2021/07/08 14:53:22;;;;;;;2.20;2.00;;;25.70;72.60;;;;;;15004833;22;20023;-59
2021/07/08 14:59:08;;;;;;;2.35;2.00;;;25.50;73.90;;;;;;15005752;22;20098;-60
2021/07/08 15:04:55;;;;;;;2.55;2.35;;;25.60;75.20;;;;;;14922078;22;20034;-59
2021/07/08 15:10:44;;;;;;;2.67;2.15;;;25.50;74.50;;;;;;14973049;22;20030;-60
2021/07/08 15:16:31;;;;;;;3.50;2.10;;;25.50;75.60;;;;;;14998565;22;20024;-58
2021/07/08 15:22:17;;;;;;;3.72;2.17;;;25.40;72.80;;;;;;15005173;22;20037;-60
2021/07/08 15:28:06;;;;;;;4.22;2.05;;;25.50;74.40;;;;;;15004829;22;20094;-60
2021/07/08 15:34:00;;;;;;;2.63;2.10;;;25.80;74.70;;;;;;15004645;22;20098;-60
2021/07/08 15:39:47;;;;;;;4.82;2.05;;;26.00;70.40;;;;;;15004500;22;20024;-60
2021/07/08 15:45:35;;;;;;;3.35;2.28;;;26.20;73.00;;;;;;15004098;22;20019;-60
2021/07/08 15:51:22;;;;;;;4.53;2.20;;;26.30;72.30;;;;;;15004671;22;20022;-60
2021/07/08 15:57:10;;;;;;;3.25;2.00;;;26.50;72.80;;;;;;15003774;22;20027;-69
2021/07/08 16:02:59;;;;;;;3.92;2.00;;;26.20;73.10;;;;;;15004194;22;20050;-64
2021/07/08 16:08:45;;;;;;;2.25;2.00;;;26.30;72.60;;;;;;14972607;22;20126;-63
2021/07/08 16:14:32;;;;;;;3.55;2.08;;;27.80;68.50;;;;;;14975897;22;20033;-58
2021/07/08 16:20:21;;;;;;;3.75;1.75;;;28.90;64.80;;;;;;14971786;22;20563;-58
2021/07/08 16:32:50;;;;;;;3.90;1.73;;;29.70;60.00;;;;;;15003599;22;20050;-58
2021/07/08 16:38:38;;;;;;;1.63;1.40;;;30.10;57.40;;;;;;15002944;22;20196;-58
2021/07/08 16:44:25;;;;;;;2.10;1.90;;;28.70;58.00;;;;;;15002912;22;20027;-58
2021/07/08 16:50:12;;;;;;;5.45;2.00;;;27.90;60.80;;;;;;15002472;22;20052;-59
2021/07/08 16:56:01;;;;;;;1.83;1.70;;;27.00;61.50;;;;;;15002797;22;20102;-58
2021/07/08 17:01:47;;;;;;;2.45;1.73;;;26.70;64.30;;;;;;15002392;22;20125;-58
2021/07/08 17:14:20;;;;;;;2.42;1.55;;;27.90;61.20;;;;;;14982741;22;20020;-58
2021/07/08 17:20:09;;;;;;;5.43;1.60;;;31.30;54.30;;;;;;14995058;22;20064;-62
2021/07/08 17:25:56;;;;;;;2.90;1.90;;;32.00;52.80;;;;;;14999959;22;20023;-59
2021/07/08 17:31:44;;;;;;;3.85;1.90;;;31.00;53.80;;;;;;15001532;22;20090;-59
2021/07/08 17:37:31;;;;;;;4.90;2.25;;;29.00;58.00;;;;;;15001027;22;20103;-58
2021/07/08 17:43:18;;;;;;;3.78;2.00;;;27.50;62.30;;;;;;15002007;22;20023;-57
2021/07/08 17:49:10;;;;;;;2.70;1.98;;;27.60;62.90;;;;;;15002462;22;20103;-59
2021/07/08 17:54:57;;;;;;;3.53;2.30;;;27.40;64.30;;;;;;14983587;22;20027;-57
2021/07/08 18:00:44;;;;;;;3.92;1.70;;;30.70;57.40;;;;;;15010535;22;20019;-58
2021/07/08 18:06:32;;;;;;;4.85;2.03;;;31.50;55.40;;;;;;14982980;22;20023;-59
2021/07/08 18:12:19;;;;;;;2.53;1.90;;;33.60;51.20;;;;;;14973348;22;20076;-59
2021/07/08 18:18:09;;;;;;;2.30;1.90;;;33.10;50.60;;;;;;14974902;22;20554;-61
2021/07/08 18:23:57;;;;;;;2.53;1.77;;;29.90;55.60;;;;;;14978487;22;20502;-60
2021/07/08 18:29:44;;;;;;;2.22;1.70;;;27.80;60.40;;;;;;14979359;22;20076;-58
2021/07/08 18:35:32;;;;;;;3.83;1.70;;;27.70;61.50;;;;;;14978048;22;20322;-59
2021/07/08 18:41:21;;;;;;;5.13;1.77;;;27.10;63.10;;;;;;14976645;22;20376;-58
2021/07/08 18:47:08;;;;;;;4.22;1.83;;;25.60;66.30;;;;;;14978965;22;20024;-59
2021/07/08 18:52:56;;;;;;;2.97;2.00;;;24.90;69.20;;;;;;14975384;22;20015;-59
2021/07/08 18:58:44;;;;;;;2.88;1.80;;;25.20;69.90;;;;;;14977216;22;20125;-59
2021/07/08 19:04:31;;;;;;;3.58;1.70;;;26.70;64.80;;;;;;14979174;22;20033;-59
2021/07/08 19:10:18;;;;;;;2.53;1.80;;;25.60;66.90;;;;;;14976566;22;20027;-58
2021/07/08 19:16:06;;;;;;;3.40;2.13;;;25.00;69.20;;;;;;14976661;22;20454;-61
2021/07/08 19:21:53;;;;;;;2.95;2.00;;;24.50;71.50;;;;;;14978191;22;20034;-57
2021/07/08 19:33:44;;;;;;;8.25;2.50;;;24.10;73.90;;;;;;14991067;22;20479;-60
2021/07/08 19:39:31;;;;;;;3.00;2.50;;;23.80;75.40;;;;;;15005191;22;20012;-65
2021/07/08 19:45:19;;;;;;;3.28;2.40;;;23.60;76.80;;;;;;15004672;22;20089;-60
2021/07/08 19:57:12;;;;;;;5.05;2.83;;;23.40;79.10;;;;;;15004178;22;20106;-67
2021/07/08 20:02:59;;;;;;;3.60;2.55;;;23.30;80.00;;;;;;15010452;22;20527;-61
2021/07/08 20:08:47;;;;;;;5.28;2.70;;;23.30;81.20;;;;;;14979706;22;20034;-58
2021/07/08 20:14:34;;;;;;;3.95;2.90;;;23.20;81.00;;;;;;14979350;22;20030;-59
2021/07/08 20:20:21;;;;;;;5.25;3.15;;;23.00;82.20;;;;;;14976693;22;20081;-59
2021/07/08 20:26:09;;;;;;;9.07;3.20;;;23.00;82.90;;;;;;14978782;22;20341;-60
2021/07/08 20:31:56;;;;;;;5.43;2.92;;;23.10;83.50;;;;;;14976801;22;20027;-59
2021/07/08 20:37:43;;;;;;;5.22;3.28;;;23.10;83.80;;;;;;14975641;22;20015;-58
2021/07/08 20:43:31;;;;;;;3.90;3.10;;;23.20;84.10;;;;;;14979050;22;20085;-61
2021/07/08 20:49:18;;;;;;;4.70;3.63;;;23.10;84.80;;;;;;14977680;22;20019;-60
2021/07/08 20:55:06;;;;;;;4.15;2.97;;;23.00;85.20;;;;;;14975654;22;20201;-59
2021/07/08 21:00:54;;;;;;;7.43;3.33;;;23.10;85.70;;;;;;14977908;22;20458;-60
2021/07/08 21:06:41;;;;;;;5.88;3.08;;;23.00;86.20;;;;;;14976171;22;20366;-60
2021/07/08 21:12:29;;;;;;;5.50;3.20;;;23.10;86.70;;;;;;14963831;22;20025;-60
2021/07/08 21:18:17;;;;;;;4.63;3.17;;;23.20;86.00;;;;;;14992551;22;20520;-59
2021/07/08 21:24:05;;;;;;;6.82;3.05;;;23.20;85.90;;;;;;14974941;22;20490;-60
2021/07/08 21:29:52;;;;;;;4.03;3.30;;;23.10;85.70;;;;;;14975985;22;20431;-59
2021/07/08 21:35:40;;;;;;;7.60;3.70;;;23.10;86.40;;;;;;14975864;22;20027;-59
2021/07/08 21:41:30;;;;;;;4.88;3.38;;;23.10;87.20;;;;;;14972115;22;20019;-59
2021/07/08 21:47:17;;;;;;;9.57;3.65;;;23.00;87.30;;;;;;14975405;22;20025;-61
2021/07/08 21:53:06;;;;;;;7.10;3.30;;;23.00;87.80;;;;;;14972638;22;20032;-59
2021/07/08 21:58:53;;;;;;;4.43;3.70;;;22.90;87.90;;;;;;14974277;22;20524;-59
2021/07/08 22:04:40;;;;;;;5.80;3.40;;;22.90;87.80;;;;;;14973881;22;20368;-59
2021/07/08 22:10:28;;;;;;;8.60;3.78;;;22.70;88.10;;;;;;14973465;22;20355;-59
2021/07/08 22:16:16;;;;;;;5.72;3.88;;;22.70;88.80;;;;;;14973198;22;20026;-59
2021/07/08 22:22:03;;;;;;;6.10;3.85;;;22.50;89.60;;;;;;14972376;22;20031;-59
2021/07/08 22:27:52;;;;;;;6.00;3.67;;;22.50;89.70;;;;;;14976207;22;20527;-59
2021/07/08 22:33:38;;;;;;;8.35;3.97;;;22.60;90.00;;;;;;14973110;22;20026;-65
2021/07/08 22:39:25;;;;;;;5.68;4.20;;;22.50;90.00;;;;;;14970788;22;20019;-63
2021/07/08 22:45:15;;;;;;;6.78;4.22;;;22.50;90.20;;;;;;14969233;22;20033;-62
2021/07/08 22:51:05;;;;;;;4.75;3.70;;;22.50;90.40;;;;;;14971717;22;20038;-63
2021/07/08 22:56:52;;;;;;;4.20;3.47;;;22.50;90.50;;;;;;14969698;22;20020;-62
2021/07/08 23:02:41;;;;;;;4.55;3.50;;;22.60;90.60;;;;;;14974292;22;20881;-63
2021/07/08 23:08:28;;;;;;;8.10;3.47;;;22.60;90.90;;;;;;14974969;22;20020;-62
